Time;durP1;ratioP1;P1;durP2;ratioP2;P2;SDS_P1;SDS_P2;PMS_P1;PMS_P2;Temp;Humidity;BMP_temperature;BMP_pressure;BME280_temperature;BME280_humidity;BME280_pressure;Samples;Min_cycle;Max_cycle;Signal;HPM_P1;HPM_P2
2023/05/08 00:00:14;;;;;;;2.78;1.90;;;;;;;22.15;45.10;100648.31;5074543;28;20041;-67
2023/05/08 00:02:42;;;;;;;2.80;1.85;;;;;;;22.13;45.31;100652.22;5074149;28;20059;-67
2023/05/08 00:05:13;;;;;;;3.00;1.80;;;;;;;22.12;45.37;100653.22;5075318;28;20045;-67
2023/05/08 00:07:43;;;;;;;3.47;2.03;;;;;;;22.11;45.28;100655.09;5075213;28;20052;-67
2023/05/08 00:10:14;;;;;;;2.85;2.00;;;;;;;22.10;45.06;100650.66;5073873;28;20058;-67
2023/05/08 00:12:45;;;;;;;3.08;1.92;;;;;;;22.07;45.19;100650.97;5075182;28;20088;-67
2023/05/08 00:15:13;;;;;;;2.95;2.10;;;;;;;22.05;45.28;100647.53;5075120;28;20048;-67
2023/05/08 00:17:41;;;;;;;3.83;2.00;;;;;;;22.05;44.97;100652.94;5075120;28;20090;-67
2023/05/08 00:20:10;;;;;;;3.38;1.98;;;;;;;22.03;45.18;100652.25;5075127;28;20131;-67
2023/05/08 00:22:39;;;;;;;2.92;2.05;;;;;;;22.02;45.18;100658.72;5074790;28;20057;-67
2023/05/08 00:25:08;;;;;;;3.03;1.95;;;;;;;22.02;45.15;100663.28;5107514;28;20044;-67
2023/05/08 00:27:39;;;;;;;3.30;1.80;;;;;;;21.98;45.20;100652.72;5074941;28;20040;-67
2023/05/08 00:30:10;;;;;;;3.08;2.17;;;;;;;21.98;45.50;100657.28;5074881;28;20083;-67
2023/05/08 00:32:39;;;;;;;4.07;2.00;;;;;;;21.96;45.41;100659.31;5074693;28;20048;-67
2023/05/08 00:35:08;;;;;;;2.88;1.95;;;;;;;21.95;45.21;100663.06;5074584;28;20060;-68
2023/05/08 00:37:39;;;;;;;3.30;2.10;;;;;;;21.93;45.52;100660.50;5074639;28;20050;-68
2023/05/08 00:40:09;;;;;;;3.15;1.95;;;;;;;21.92;45.36;100649.78;5074533;28;20482;-68
2023/05/08 00:42:38;;;;;;;3.10;2.00;;;;;;;21.91;45.33;100661.66;5074509;28;20457;-68
2023/05/08 00:45:09;;;;;;;3.47;2.03;;;;;;;21.89;45.44;100658.22;5074453;28;20052;-67
2023/05/08 00:47:38;;;;;;;2.83;1.83;;;;;;;21.88;45.51;100656.53;5073385;28;20581;-67
2023/05/08 00:50:10;;;;;;;3.03;1.95;;;;;;;21.87;45.33;100654.81;5074659;28;20100;-67
2023/05/08 00:52:40;;;;;;;3.08;2.10;;;;;;;21.85;45.38;100657.69;5074644;28;20076;-67
2023/05/08 00:55:11;;;;;;;3.05;1.92;;;;;;;21.84;45.34;100656.00;5074417;28;20044;-67
2023/05/08 00:57:39;;;;;;;3.17;1.98;;;;;;;21.83;45.23;100657.00;5074313;28;20044;-67
2023/05/08 01:00:10;;;;;;;3.13;2.00;;;;;;;21.82;45.20;100662.59;5074218;28;20047;-68
2023/05/08 01:02:42;;;;;;;2.28;1.88;;;;;;;21.81;45.29;100666.28;5074330;28;20048;-67
2023/05/08 01:05:11;;;;;;;3.08;2.00;;;;;;;21.79;45.25;100669.16;5074391;28;20087;-67
2023/05/08 01:07:40;;;;;;;3.28;2.15;;;;;;;21.78;45.25;100662.03;5074219;28;20490;-67
2023/05/08 01:10:12;;;;;;;3.30;1.83;;;;;;;21.77;45.22;100670.34;5073402;28;20064;-68
2023/05/08 01:12:47;;;;;;;;;;;;;;;21.75;45.44;100666.94;5074270;28;20040;-68
2023/05/08 01:15:27;;;;;;;2.80;1.92;;;;;;;21.74;45.29;100676.09;5074323;28;19920;-68
2023/05/08 01:18:08;;;;;;;3.30;1.95;;;;;;;21.71;45.26;100683.53;5074105;28;20048;-68
2023/05/08 01:20:46;;;;;;;3.65;2.10;;;;;;;21.69;45.19;100680.09;5073899;28;20055;-68
2023/05/08 01:23:53;;;;;;;3.08;1.95;;;;;;;21.69;45.33;100684.66;5073718;28;20086;-67
2023/05/08 01:27:03;;;;;;;3.55;2.10;;;;;;;21.66;45.38;100685.00;5073794;28;20500;-68
2023/05/08 01:29:54;;;;;;;3.05;2.10;;;;;;;21.66;45.08;100685.00;5027871;28;20048;-68
2023/05/08 01:32:27;;;;;;;3.75;2.22;;;;;;;21.64;45.16;100687.00;5073772;28;20404;-68
2023/05/08 01:35:00;;;;;;;;;;;;;;;21.63;45.26;100691.59;5074146;28;20102;-68
2023/05/08 01:37:32;;;;;;;;;;;;;;;21.61;45.38;100690.00;5074182;28;19921;-68
2023/05/08 01:40:11;;;;;;;3.45;2.05;;;;;;;21.60;45.46;100688.31;5073830;28;19921;-68
2023/05/08 01:42:46;;;;;;;3.30;2.10;;;;;;;21.59;45.26;100689.31;5073366;28;20060;-68
2023/05/08 01:45:25;;;;;;;3.55;2.00;;;;;;;21.56;45.15;100693.19;5073685;28;20048;-68
2023/05/08 01:48:03;;;;;;;2.63;1.98;;;;;;;21.55;45.40;100699.63;5073257;28;20056;-67
2023/05/08 01:50:38;;;;;;;3.13;2.10;;;;;;;21.54;45.14;100695.22;5073212;28;20090;-68
2023/05/08 01:53:12;;;;;;;2.97;2.00;;;;;;;21.53;45.30;100696.22;5073592;28;20051;-66
2023/05/08 01:55:43;;;;;;;3.25;2.20;;;;;;;21.52;44.96;100696.34;5073366;28;20049;-68
2023/05/08 01:58:12;;;;;;;3.80;1.98;;;;;;;21.50;45.25;100701.94;5073044;28;20067;-68
2023/05/08 02:00:43;;;;;;;3.22;2.03;;;;;;;21.50;45.31;100698.38;5073139;28;20468;-68
2023/05/08 02:03:16;;;;;;;3.05;2.00;;;;;;;21.49;45.17;100704.81;5073791;28;20125;-68
2023/05/08 02:05:46;;;;;;;;;;;;;;;21.46;45.17;100708.69;5073949;28;20075;-68
2023/05/08 02:08:15;;;;;;;3.40;2.10;;;;;;;21.46;44.97;100705.13;5073082;28;20274;-68
2023/05/08 02:10:49;;;;;;;3.17;2.08;;;;;;;21.43;45.36;100703.56;5072916;28;20433;-68
2023/05/08 02:13:19;;;;;;;3.03;2.10;;;;;;;21.43;45.27;100712.56;5072720;28;20045;-68
2023/05/08 02:15:49;;;;;;;3.20;2.03;;;;;;;21.42;45.13;100715.41;5072928;28;20098;-68
2023/05/08 02:18:25;;;;;;;3.95;2.22;;;;;;;21.39;45.17;100713.00;5072789;28;20464;-68
2023/05/08 02:20:55;;;;;;;2.30;1.70;;;;;;;21.38;45.15;100712.16;5072761;28;20068;-68
2023/05/08 02:23:27;;;;;;;3.00;2.10;;;;;;;21.38;45.46;100709.44;5072319;28;20139;-68
2023/05/08 02:25:56;;;;;;;3.28;1.98;;;;;;;21.35;45.19;100709.75;5072449;28;20079;-68
2023/05/08 02:28:25;;;;;;;2.92;1.90;;;;;;;21.34;45.17;100708.03;5072650;28;20139;-68
2023/05/08 02:30:54;;;;;;;2.88;2.05;;;;;;;21.33;44.95;100709.06;5072867;28;20044;-68
2023/05/08 02:33:26;;;;;;;3.40;2.30;;;;;;;21.32;45.06;100715.44;5104706;28;20080;-68
2023/05/08 02:35:56;;;;;;;3.00;2.10;;;;;;;21.30;44.97;100714.75;5072405;28;20048;-68
2023/05/08 02:38:26;;;;;;;2.95;2.00;;;;;;;21.30;45.07;100712.03;5072186;28;20531;-68
2023/05/08 02:40:58;;;;;;;3.42;2.20;;;;;;;21.28;45.08;100714.06;5072471;28;20379;-68
2023/05/08 02:43:26;;;;;;;3.45;2.17;;;;;;;21.27;45.12;100706.06;5072281;28;20087;-68
2023/05/08 02:46:02;;;;;;;3.53;2.20;;;;;;;21.26;45.25;100707.94;5072207;28;20068;-68
2023/05/08 02:48:37;;;;;;;3.13;2.13;;;;;;;21.25;45.27;100714.34;5072021;28;20520;-68
2023/05/08 02:51:15;;;;;;;4.50;2.30;;;;;;;21.24;45.42;100714.50;5072175;28;20473;-68
2023/05/08 02:53:47;;;;;;;3.28;2.05;;;;;;;21.23;45.20;100726.31;5072350;28;20420;-68
2023/05/08 02:56:25;;;;;;;3.13;2.10;;;;;;;21.22;45.07;100730.03;5072045;28;20083;-68
2023/05/08 02:58:59;;;;;;;2.60;1.85;;;;;;;21.22;45.20;100724.59;5072022;28;20129;-68
2023/05/08 03:01:35;;;;;;;3.35;1.95;;;;;;;21.19;45.09;100720.34;5071835;28;20044;-68
2023/05/08 03:04:09;;;;;;;3.60;1.92;;;;;;;21.18;45.21;100724.06;5072067;28;20114;-68
2023/05/08 03:06:41;;;;;;;3.65;2.20;;;;;;;21.17;45.32;100726.94;5071790;28;20541;-68
2023/05/08 03:09:16;;;;;;;3.30;1.90;;;;;;;21.16;45.11;100734.22;5071727;28;20056;-68
2023/05/08 03:11:50;;;;;;;3.25;2.25;;;;;;;21.15;45.20;100735.22;5071755;28;20048;-68
2023/05/08 03:14:22;;;;;;;3.15;2.05;;;;;;;21.13;44.90;100732.66;5071992;28;20040;-69
2023/05/08 03:16:55;;;;;;;3.35;2.10;;;;;;;21.12;45.08;100728.22;5071837;28;20048;-68
2023/05/08 03:19:32;;;;;;;3.67;2.20;;;;;;;21.10;44.97;100730.22;5071857;28;20048;-68
2023/05/08 03:22:03;;;;;;;3.25;2.05;;;;;;;21.09;45.42;100725.81;5071335;28;20045;-68
2023/05/08 03:24:35;;;;;;;3.30;2.20;;;;;;;21.09;45.24;100724.97;5071527;28;20048;-68
2023/05/08 03:27:04;;;;;;;2.90;1.90;;;;;;;21.08;45.30;100723.25;5071727;28;20139;-68
2023/05/08 03:29:35;;;;;;;2.97;1.95;;;;;;;21.07;45.13;100726.97;5071657;28;20049;-68
2023/05/08 03:32:04;;;;;;;3.20;2.10;;;;;;;21.05;45.26;100729.84;5070886;28;20086;-68
2023/05/08 03:34:35;;;;;;;3.47;2.33;;;;;;;21.04;45.10;100728.13;5071028;28;20083;-68
2023/05/08 03:37:04;;;;;;;3.38;2.10;;;;;;;21.03;44.97;100731.81;5071495;28;20132;-67
2023/05/08 03:39:32;;;;;;;3.10;2.00;;;;;;;21.04;45.26;100732.69;5071757;28;20452;-68
2023/05/08 03:42:07;;;;;;;3.05;2.10;;;;;;;21.02;45.37;100735.53;5071594;28;20048;-67
2023/05/08 03:44:37;;;;;;;3.03;2.15;;;;;;;21.01;45.20;100739.25;5071624;28;20055;-67
2023/05/08 03:47:06;;;;;;;3.15;2.20;;;;;;;21.00;45.25;100737.53;5071591;28;20056;-67
2023/05/08 03:49:38;;;;;;;3.15;2.00;;;;;;;21.00;45.06;100734.84;5072563;28;20041;-67
2023/05/08 03:52:07;;;;;;;3.40;2.28;;;;;;;20.98;45.23;100744.97;5071654;28;20071;-67
2023/05/08 03:54:38;;;;;;;3.05;2.13;;;;;;;20.98;45.01;100738.69;5071759;28;20448;-67
2023/05/08 03:57:09;;;;;;;3.70;2.00;;;;;;;20.97;45.29;100737.84;5071355;28;20055;-67
2023/05/08 03:59:44;;;;;;;3.42;2.13;;;;;;;20.96;45.16;100744.28;5071332;28;20044;-68
2023/05/08 04:02:21;;;;;;;2.92;1.95;;;;;;;20.95;45.13;100742.56;5071370;28;20131;-67
2023/05/08 04:05:00;;;;;;;3.10;2.15;;;;;;;20.95;45.46;100744.44;5071214;28;20452;-67
2023/05/08 04:07:37;;;;;;;2.28;1.80;;;;;;;20.93;45.22;100741.84;5071287;28;20040;-67
2023/05/08 04:10:09;;;;;;;3.08;1.88;;;;;;;20.93;45.11;100749.13;5071171;28;20056;-67
2023/05/08 04:12:46;;;;;;;3.60;2.10;;;;;;;20.92;45.19;100752.84;5071185;28;20082;-67
2023/05/08 04:15:20;;;;;;;3.28;1.90;;;;;;;20.92;45.26;100745.56;5071385;28;20060;-67
2023/05/08 04:17:52;;;;;;;3.35;2.08;;;;;;;20.92;45.49;100760.97;5071308;28;20401;-67
2023/05/08 04:20:26;;;;;;;2.78;1.90;;;;;;;20.90;45.39;100753.00;5071674;28;20049;-68
2023/05/08 04:22:57;;;;;;;;;;;;;;;20.89;45.19;100762.13;5071391;28;20045;-68
2023/05/08 04:25:26;;;;;;;2.72;1.80;;;;;;;20.88;45.36;100765.84;5071278;28;19943;-67
2023/05/08 04:27:56;;;;;;;2.90;1.98;;;;;;;20.89;45.36;100772.13;5071093;28;20052;-68
2023/05/08 04:30:27;;;;;;;2.50;1.80;;;;;;;20.87;45.35;100780.41;5071053;28;20437;-67
2023/05/08 04:32:58;;;;;;;3.88;2.10;;;;;;;20.87;45.22;100783.13;5070926;28;20131;-67
2023/05/08 04:35:29;;;;;;;3.45;2.00;;;;;;;20.85;45.28;100783.28;5069798;28;20048;-67
2023/05/08 04:37:58;;;;;;;2.40;1.63;;;;;;;20.85;45.30;100779.69;5070834;28;21082;-67
2023/05/08 04:40:26;;;;;;;3.03;1.80;;;;;;;20.84;45.48;100786.97;5071115;28;20094;-67
2023/05/08 04:42:56;;;;;;;3.45;2.10;;;;;;;20.85;45.33;100790.56;5071024;28;20136;-67
2023/05/08 04:45:25;;;;;;;3.63;2.00;;;;;;;20.84;45.23;100799.66;5070734;28;20048;-67
2023/05/08 04:47:54;;;;;;;2.97;1.80;;;;;;;20.83;45.31;100803.38;5074332;28;20041;-67
2023/05/08 04:50:23;;;;;;;3.00;2.03;;;;;;;20.82;45.28;100798.94;5074572;28;20048;-69
2023/05/08 04:52:52;;;;;;;2.80;1.70;;;;;;;20.81;45.32;100803.53;5074376;28;20080;-67
2023/05/08 04:55:20;;;;;;;4.03;2.00;;;;;;;20.81;45.32;100818.94;5074308;28;20110;-70
2023/05/08 04:57:48;;;;;;;2.83;1.83;;;;;;;20.81;45.60;100818.94;5074126;28;20044;-67
2023/05/08 05:00:18;;;;;;;3.30;2.00;;;;;;;20.80;45.53;100807.22;5073917;28;20040;-66
2023/05/08 05:02:46;;;;;;;3.03;2.00;;;;;;;20.79;45.53;100810.09;5073920;28;20044;-68
2023/05/08 05:05:14;;;;;;;3.13;2.08;;;;;;;20.80;45.67;100817.22;5074055;28;20103;-68
2023/05/08 05:07:42;;;;;;;2.70;1.67;;;;;;;20.78;45.42;100822.78;5074053;28;20059;-67
2023/05/08 05:10:12;;;;;;;2.90;1.80;;;;;;;20.78;45.50;100822.78;5073827;28;20055;-67
2023/05/08 05:12:40;;;;;;;3.30;2.05;;;;;;;20.76;45.63;100818.53;5073959;28;20051;-67
2023/05/08 05:15:10;;;;;;;3.38;2.03;;;;;;;20.76;45.63;100822.09;5073849;28;20049;-67
2023/05/08 05:17:39;;;;;;;3.05;1.90;;;;;;;20.76;45.32;100824.81;5073690;28;20080;-67
2023/05/08 05:20:09;;;;;;;3.03;2.03;;;;;;;20.75;45.56;100822.22;5074558;28;20429;-67
2023/05/08 05:22:37;;;;;;;3.75;1.90;;;;;;;20.75;45.17;100822.22;5094024;28;20052;-67
2023/05/08 05:25:06;;;;;;;2.92;1.67;;;;;;;20.74;45.29;100834.06;5093865;28;20052;-68
2023/05/08 05:27:39;;;;;;;3.42;2.22;;;;;;;20.74;45.42;100829.50;5093576;28;20040;-67
2023/05/08 05:30:08;;;;;;;2.83;1.85;;;;;;;20.73;45.39;100837.78;5079840;28;20048;-67
2023/05/08 05:32:38;;;;;;;2.72;1.80;;;;;;;20.73;45.57;100837.78;5073216;28;20482;-68
2023/05/08 05:35:09;;;;;;;2.90;1.70;;;;;;;20.72;45.23;100841.47;5074728;28;20114;-68
2023/05/08 05:37:37;;;;;;;2.67;1.70;;;;;;;20.71;45.23;100840.63;5073210;28;20404;-68
2023/05/08 05:40:07;;;;;;;3.17;1.90;;;;;;;20.71;45.47;100837.06;5072899;28;20525;-67
2023/05/08 05:42:37;;;;;;;2.38;1.67;;;;;;;20.71;45.40;100845.19;5072894;28;20044;-69
2023/05/08 05:45:06;;;;;;;3.42;1.95;;;;;;;20.71;45.40;100839.78;5072978;28;20048;-68
2023/05/08 05:47:37;;;;;;;2.95;1.73;;;;;;;20.71;45.33;100842.47;5073116;28;20063;-68
2023/05/08 05:50:06;;;;;;;2.92;1.73;;;;;;;20.69;45.41;100844.50;5071953;28;20052;-70
2023/05/08 05:52:34;;;;;;;2.85;1.90;;;;;;;20.69;45.26;100847.19;5073102;28;20086;-71
2023/05/08 05:55:06;;;;;;;2.88;1.73;;;;;;;20.69;45.00;100858.03;5071713;28;20063;-68
2023/05/08 05:57:36;;;;;;;3.53;1.67;;;;;;;20.68;44.96;100857.19;5072709;28;20041;-67
2023/05/08 06:00:07;;;;;;;3.15;1.92;;;;;;;20.68;45.05;100856.34;5072852;28;20072;-68
2023/05/08 06:02:36;;;;;;;3.67;2.00;;;;;;;20.68;45.61;100859.03;5073007;28;20050;-68
2023/05/08 06:05:08;;;;;;;3.90;1.90;;;;;;;20.68;45.64;100861.75;5072848;28;20052;-68
2023/05/08 06:07:37;;;;;;;2.83;1.88;;;;;;;20.68;45.48;100856.34;5072603;28;20054;-73
2023/05/08 06:10:08;;;;;;;5.45;1.85;;;;;;;20.67;45.79;100852.78;5072544;28;20110;-68
2023/05/08 06:12:38;;;;;;;2.53;1.63;;;;;;;20.68;45.90;100861.75;5072533;28;20051;-67
2023/05/08 06:15:08;;;;;;;3.00;1.85;;;;;;;20.68;45.92;100853.63;5072423;28;20041;-69
2023/05/08 06:17:36;;;;;;;2.42;1.60;;;;;;;20.68;45.78;100856.34;5072453;28;20081;-67
2023/05/08 06:20:08;;;;;;;2.70;1.70;;;;;;;20.67;45.75;100854.63;5072399;28;20473;-66
2023/05/08 06:22:38;;;;;;;9.35;1.73;;;;;;;20.67;45.21;100855.47;5072550;28;20102;-66
2023/05/08 06:25:08;;;;;;;3.97;1.85;;;;;;;20.67;45.02;100854.63;5071947;28;20131;-66
2023/05/08 06:27:38;;;;;;;4.78;2.05;;;;;;;20.66;44.70;100852.91;5070926;28;20497;-66
2023/05/08 06:30:09;;;;;;;5.15;1.90;;;;;;;20.65;44.85;100860.16;5070654;28;20060;-66
2023/05/08 06:32:38;;;;;;;3.17;1.80;;;;;;;20.66;44.42;100858.34;5072157;28;20051;-67
2023/05/08 06:35:07;;;;;;;3.78;1.50;;;;;;;20.65;44.92;100857.44;5071358;28;20045;-66
2023/05/08 06:37:35;;;;;;;2.70;1.70;;;;;;;20.64;44.47;100861.16;5072021;28;20052;-66
2023/05/08 06:40:05;;;;;;;3.90;1.73;;;;;;;20.65;44.86;100856.59;5071998;28;20110;-67
2023/05/08 06:42:38;;;;;;;3.67;1.67;;;;;;;20.64;44.33;100861.16;5070728;28;20144;-68
2023/05/08 06:45:07;;;;;;;2.92;1.73;;;;;;;20.65;44.53;100870.16;5071893;28;20041;-67
2023/05/08 06:47:36;;;;;;;2.90;1.70;;;;;;;20.64;44.51;100865.72;5072177;28;20052;-65
2023/05/08 06:50:07;;;;;;;3.90;1.50;;;;;;;20.65;44.50;100867.44;5071571;28;20048;-66
2023/05/08 06:52:35;;;;;;;3.35;1.65;;;;;;;20.64;44.76;100871.16;5071127;28;20048;-66
2023/05/08 06:55:07;;;;;;;3.50;1.50;;;;;;;20.65;44.58;100875.56;5071762;28;20076;-66
2023/05/08 06:57:36;;;;;;;3.13;1.40;;;;;;;20.66;44.56;100871.88;5071450;28;20052;-65
2023/05/08 07:00:06;;;;;;;3.67;1.70;;;;;;;20.66;44.48;100871.88;5071881;28;20048;-66
2023/05/08 07:02:35;;;;;;;2.30;1.42;;;;;;;20.66;44.86;100874.59;5071548;28;20048;-65
2023/05/08 07:05:03;;;;;;;2.33;1.40;;;;;;;20.65;44.55;100873.72;5071504;28;20471;-66
2023/05/08 07:07:32;;;;;;;3.40;1.67;;;;;;;20.66;44.68;100874.59;5071479;28;20406;-65
2023/05/08 07:10:01;;;;;;;2.85;1.70;;;;;;;20.66;45.06;100880.03;5070677;28;20090;-65
2023/05/08 07:12:30;;;;;;;2.22;1.50;;;;;;;20.66;44.74;100885.44;5071411;28;20482;-65
2023/05/08 07:14:58;;;;;;;2.92;1.70;;;;;;;20.66;44.75;100874.59;5071683;28;20053;-66
2023/05/08 07:17:31;;;;;;;2.80;1.50;;;;;;;20.66;44.82;100877.31;5071612;28;20044;-65
2023/05/08 07:20:00;;;;;;;2.67;1.50;;;;;;;20.66;44.54;100880.03;5072369;28;20090;-65
2023/05/08 07:22:28;;;;;;;3.35;1.60;;;;;;;20.66;44.77;100871.88;5070443;28;20048;-66
2023/05/08 07:24:56;;;;;;;2.67;1.60;;;;;;;20.65;44.51;100876.44;5071133;28;20566;-65
2023/05/08 07:27:25;;;;;;;2.30;1.45;;;;;;;20.67;44.74;100876.31;5070934;28;20048;-65
2023/05/08 07:29:56;;;;;;;2.67;1.50;;;;;;;20.67;44.63;100873.59;5071266;28;20076;-65
2023/05/08 07:32:24;;;;;;;2.13;1.40;;;;;;;20.66;44.88;100874.59;5071408;28;20052;-65
2023/05/08 07:34:54;;;;;;;2.35;1.40;;;;;;;20.66;44.60;100877.31;5071270;28;20045;-65
2023/05/08 07:37:26;;;;;;;2.70;1.33;;;;;;;20.66;44.84;100880.88;5071223;28;20044;-65
2023/05/08 07:39:54;;;;;;;2.42;1.30;;;;;;;20.67;44.81;100881.72;5071398;28;20483;-65
2023/05/08 07:42:23;;;;;;;2.15;1.40;;;;;;;20.66;44.76;100874.59;5069995;28;20056;-65
2023/05/08 07:44:52;;;;;;;2.53;1.40;;;;;;;20.66;44.74;100882.72;5071209;28;20056;-65
2023/05/08 07:47:22;;;;;;;2.78;1.58;;;;;;;20.67;44.58;100881.72;5071042;28;20405;-66
2023/05/08 07:49:50;;;;;;;2.22;1.40;;;;;;;20.66;44.54;100877.31;5071123;28;20457;-66
2023/05/08 07:52:19;;;;;;;2.33;1.50;;;;;;;20.67;44.52;100882.59;5071164;28;20068;-66
2023/05/08 07:54:48;;;;;;;2.35;1.52;;;;;;;20.68;44.37;100894.28;5071343;28;20072;-66
2023/05/08 07:57:16;;;;;;;2.75;1.30;;;;;;;20.67;44.90;100882.59;5071080;28;20135;-66
2023/05/08 07:59:48;;;;;;;1.88;1.10;;;;;;;20.68;44.64;100880.72;5071320;28;20055;-65
2023/05/08 08:02:18;;;;;;;2.67;1.20;;;;;;;20.68;44.76;100878.03;5071000;28;20133;-65
2023/05/08 08:04:46;;;;;;;1.60;1.20;;;;;;;20.68;44.54;100872.59;5071293;28;20462;-65
2023/05/08 08:07:16;;;;;;;1.90;1.35;;;;;;;20.67;44.39;100882.59;5069869;28;20048;-66
2023/05/08 08:09:50;;;;;;;1.88;1.30;;;;;;;20.68;44.57;100875.31;5070848;28;20102;-66
2023/05/08 08:12:19;;;;;;;2.30;1.42;;;;;;;20.69;44.92;100877.00;5069485;28;20083;-65
2023/05/08 08:14:47;;;;;;;1.80;1.25;;;;;;;20.68;44.84;100878.88;5070113;28;20446;-65
2023/05/08 08:17:18;;;;;;;2.15;1.38;;;;;;;20.69;44.81;100877.00;5070619;28;20485;-65
2023/05/08 08:19:47;;;;;;;3.28;1.45;;;;;;;20.69;44.50;100875.16;5071483;28;20053;-65
2023/05/08 08:22:15;;;;;;;2.17;1.40;;;;;;;20.68;44.55;100873.44;5074152;28;20102;-65
2023/05/08 08:24:44;;;;;;;2.08;1.50;;;;;;;20.70;44.59;100871.44;5074559;28;20044;-65
2023/05/08 08:27:13;;;;;;;3.88;1.55;;;;;;;20.70;44.58;100865.16;5074385;28;20063;-66
2023/05/08 08:29:42;;;;;;;3.17;1.50;;;;;;;20.71;44.79;100878.56;5073369;28;20481;-65
2023/05/08 08:32:10;;;;;;;3.03;1.38;;;;;;;20.71;44.85;100872.31;5074825;28;20052;-65
2023/05/08 08:34:39;;;;;;;2.85;1.60;;;;;;;20.71;44.81;100872.31;5074383;28;20055;-65
2023/05/08 08:37:07;;;;;;;2.28;1.27;;;;;;;20.72;44.67;100865.88;5073154;28;20045;-66
2023/05/08 08:39:35;;;;;;;3.25;1.50;;;;;;;20.71;44.69;100861.47;5072972;28;20135;-65
2023/05/08 08:42:04;;;;;;;2.22;1.45;;;;;;;20.71;44.44;100869.59;5072700;28;20051;-65
2023/05/08 08:44:33;;;;;;;1.90;1.27;;;;;;;20.72;44.78;100868.59;5074585;28;20045;-65
2023/05/08 08:47:05;;;;;;;2.40;1.42;;;;;;;20.72;44.65;100864.03;5073091;28;20131;-65
2023/05/08 08:49:36;;;;;;;2.10;0.90;;;;;;;20.73;44.53;100856.75;5074136;28;20515;-65
2023/05/08 08:52:09;;;;;;;2.15;1.30;;;;;;;20.73;44.71;100864.88;5074210;28;20071;-65
2023/05/08 08:54:40;;;;;;;2.20;1.27;;;;;;;20.73;44.56;100856.75;5074241;28;20106;-65
2023/05/08 08:57:09;;;;;;;2.75;1.25;;;;;;;20.74;44.74;100861.16;5074253;28;20040;-65
2023/05/08 08:59:40;;;;;;;2.63;1.35;;;;;;;20.74;44.92;100864.72;5074489;28;20405;-65
2023/05/08 09:02:16;;;;;;;2.25;1.30;;;;;;;20.74;44.77;100855.75;5074246;28;20050;-64
2023/05/08 09:04:46;;;;;;;1.88;1.20;;;;;;;20.75;44.48;100868.28;5074180;28;20450;-65
2023/05/08 09:07:22;;;;;;;2.20;1.33;;;;;;;20.75;44.94;100847.50;5073791;28;20413;-65
2023/05/08 09:09:54;;;;;;;1.95;1.15;;;;;;;20.76;44.76;100853.78;5073821;28;20048;-66
2023/05/08 09:12:22;;;;;;;1.55;1.10;;;;;;;20.77;44.95;100848.19;5073896;28;20086;-66
2023/05/08 09:14:52;;;;;;;2.38;1.20;;;;;;;20.78;44.77;100852.63;5073906;28;20132;-66
2023/05/08 09:17:20;;;;;;;3.05;1.40;;;;;;;20.76;44.56;100851.91;5073571;28;20048;-66
2023/05/08 09:19:49;;;;;;;1.77;1.20;;;;;;;20.78;45.17;100858.03;5073566;28;20528;-66
2023/05/08 09:22:22;;;;;;;3.40;1.35;;;;;;;20.79;44.99;100859.75;5073906;28;20052;-66
2023/05/08 09:24:58;;;;;;;3.28;1.40;;;;;;;20.80;44.71;100849.75;5073902;28;20060;-65
2023/05/08 09:27:28;;;;;;;1.88;1.20;;;;;;;20.81;44.75;100851.47;5073798;28;20080;-65
2023/05/08 09:30:03;;;;;;;2.65;1.30;;;;;;;20.81;44.66;100851.47;5073703;28;20504;-66
2023/05/08 09:32:32;;;;;;;1.80;1.00;;;;;;;20.82;44.95;100854.03;5072770;28;20079;-66
2023/05/08 09:35:01;;;;;;;2.97;1.50;;;;;;;20.82;44.65;100854.03;5073282;28;20543;-65
2023/05/08 09:37:35;;;;;;;3.03;1.10;;;;;;;20.83;44.69;100854.88;5073617;28;20048;-66
2023/05/08 09:40:17;;;;;;;2.03;1.10;;;;;;;20.85;44.78;100852.91;5073402;28;20051;-66
2023/05/08 09:42:47;;;;;;;2.15;1.20;;;;;;;20.85;44.75;100852.91;5073978;28;20052;-67
2023/05/08 09:45:28;;;;;;;2.75;1.30;;;;;;;20.86;44.84;100838.34;5073750;28;20048;-66
2023/05/08 09:47:56;;;;;;;2.55;1.23;;;;;;;20.87;45.37;100845.47;5073368;28;20048;-68
2023/05/08 09:50:26;;;;;;;1.80;1.10;;;;;;;20.89;45.35;100843.47;5073249;28;20049;-66
2023/05/08 09:52:54;;;;;;;2.30;1.10;;;;;;;20.89;45.25;100848.91;5073200;28;20052;-66
2023/05/08 09:55:22;;;;;;;2.33;1.05;;;;;;;20.90;45.35;100834.34;5073062;28;20048;-65
2023/05/08 09:57:56;;;;;;;2.05;1.25;;;;;;;20.91;45.17;100841.47;5073604;28;20049;-66
2023/05/08 10:00:28;;;;;;;1.77;1.08;;;;;;;20.92;45.46;100837.75;5072003;28;20049;-66
2023/05/08 10:02:58;;;;;;;3.00;1.10;;;;;;;20.94;45.57;100840.31;5072949;28;20048;-66
2023/05/08 10:05:29;;;;;;;2.65;1.30;;;;;;;20.95;45.51;100836.63;5073050;28;20056;-66
2023/05/08 10:08:17;;;;;;;1.60;1.08;;;;;;;20.95;45.15;100832.06;5072546;28;20052;-66
2023/05/08 10:10:45;;;;;;;2.65;1.20;;;;;;;20.95;45.24;100823.94;5072970;28;20441;-66
2023/05/08 10:13:13;;;;;;;3.50;1.23;;;;;;;20.98;45.66;100822.78;5071471;28;20054;-66
2023/05/08 10:15:44;;;;;;;2.08;1.05;;;;;;;20.99;45.15;100824.47;5072294;28;20052;-67
2023/05/08 10:18:16;;;;;;;2.13;1.23;;;;;;;21.01;45.13;100827.88;5072479;28;20523;-65
2023/05/08 10:20:48;;;;;;;2.95;1.25;;;;;;;21.02;45.37;100821.47;5072818;28;20083;-65
2023/05/08 10:23:19;;;;;;;2.55;1.25;;;;;;;21.03;45.32;100813.19;5072864;28;20402;-66
2023/05/08 10:25:53;;;;;;;2.15;1.10;;;;;;;21.06;45.52;100809.34;5072662;28;20047;-66
2023/05/08 10:28:31;;;;;;;1.77;1.00;;;;;;;21.08;45.71;100815.47;5072357;28;20090;-65
2023/05/08 10:31:04;;;;;;;4.13;1.30;;;;;;;21.10;45.41;100808.88;5072106;28;20056;-65
2023/05/08 10:33:34;;;;;;;2.42;1.20;;;;;;;21.12;45.58;100812.31;5072564;28;20075;-66
2023/05/08 10:36:03;;;;;;;2.70;1.30;;;;;;;21.14;45.67;100804.91;5072255;28;20496;-65
2023/05/08 10:38:32;;;;;;;2.15;1.10;;;;;;;21.16;45.45;100807.47;5072463;28;20409;-65
2023/05/08 10:41:01;;;;;;;2.58;1.23;;;;;;;21.19;45.59;100803.59;5072151;28;20044;-66
2023/05/08 10:43:32;;;;;;;2.58;1.25;;;;;;;21.22;45.23;100800.56;5072004;28;20101;-65
2023/05/08 10:46:09;;;;;;;3.70;1.23;;;;;;;21.25;45.63;100803.00;5072108;28;20487;-65
2023/05/08 10:48:47;;;;;;;1.85;1.00;;;;;;;21.27;45.42;100798.31;5071946;28;20094;-65
2023/05/08 10:51:23;;;;;;;2.65;1.20;;;;;;;21.30;45.58;100800.72;5071788;28;20048;-65
2023/05/08 10:54:00;;;;;;;1.23;0.98;;;;;;;21.33;45.68;100798.59;5071602;28;20093;-67
2023/05/08 10:56:31;;;;;;;2.25;1.02;;;;;;;21.37;45.62;100802.69;5071710;28;20142;-66
2023/05/08 10:59:00;;;;;;;1.85;0.98;;;;;;;21.40;45.68;100787.97;5071604;28;20045;-66
2023/05/08 11:01:29;;;;;;;1.33;1.00;;;;;;;21.45;45.68;100795.69;5071284;28;20060;-66
2023/05/08 11:03:58;;;;;;;2.70;1.35;;;;;;;21.47;45.48;100789.09;5071388;28;20047;-66
2023/05/08 11:06:44;;;;;;;1.75;1.00;;;;;;;21.51;45.54;100782.34;5072270;28;20424;-66
2023/05/08 11:09:19;;;;;;;1.83;1.10;;;;;;;21.56;45.47;100771.06;5070931;28;20129;-66
2023/05/08 11:11:59;;;;;;;1.95;1.02;;;;;;;21.59;45.90;100777.03;5071390;28;20044;-66
2023/05/08 11:14:30;;;;;;;1.33;0.93;;;;;;;21.63;45.64;100777.59;5071094;28;20052;-65
2023/05/08 11:17:07;;;;;;;2.92;1.20;;;;;;;21.67;45.65;100770.84;5071309;28;20048;-66
2023/05/08 11:19:37;;;;;;;1.67;1.00;;;;;;;21.71;45.87;100774.97;5071157;28;20076;-66
2023/05/08 11:22:16;;;;;;;2.03;1.13;;;;;;;21.76;45.98;100778.09;5071192;28;20050;-66
2023/05/08 11:24:50;;;;;;;2.60;1.02;;;;;;;21.81;45.88;100781.22;5071075;28;20056;-66
2023/05/08 11:27:32;;;;;;;3.50;1.17;;;;;;;21.86;45.85;100778.03;5071065;28;20055;-65
2023/05/08 11:30:33;;;;;;;1.20;0.88;;;;;;;21.90;45.44;100779.41;5070999;28;20047;-66
2023/05/08 11:33:36;;;;;;;1.98;1.17;;;;;;;21.95;45.56;100785.25;5070849;28;20079;-65
2023/05/08 11:36:18;;;;;;;2.40;0.90;;;;;;;22.00;45.72;100783.81;5071124;28;20083;-65
2023/05/08 11:39:07;;;;;;;2.58;0.90;;;;;;;22.05;45.70;100777.06;5071097;28;20169;-66
2023/05/08 11:41:35;;;;;;;2.85;1.20;;;;;;;22.10;45.70;100783.78;5070871;28;20072;-65
2023/05/08 11:44:19;;;;;;;2.78;1.00;;;;;;;22.14;45.49;100771.59;5070676;28;20098;-65
2023/05/08 11:46:52;;;;;;;1.88;0.93;;;;;;;22.19;45.57;100768.38;5070926;28;20048;-65